Time;durP1;ratioP1;P1;durP2;ratioP2;P2;SDS_P1;SDS_P2;PMS_P1;PMS_P2;Temp;Humidity;BMP_temperature;BMP_pressure;BME280_temperature;BME280_humidity;BME280_pressure;Samples;Min_cycle;Max_cycle;Signal;HPM_P1;HPM_P2
2022/05/20 00:09:18;;;;;;;20.08;14.18;;;10.40;99.90;;;;;;21221056;27;20112;-50
2022/05/20 00:19:21;;;;;;;16.77;12.93;;;10.30;99.90;;;;;;21166057;27;20031;-54
2022/05/20 00:29:25;;;;;;;19.92;14.63;;;10.40;99.90;;;;;;21214638;27;20099;-52
2022/05/20 00:39:27;;;;;;;25.98;15.93;;;10.30;99.90;;;;;;21192183;27;20512;-51
2022/05/20 00:49:30;;;;;;;22.40;15.43;;;10.10;99.90;;;;;;21188308;27;20450;-53
2022/05/20 00:59:36;;;;;;;24.30;17.60;;;10.10;99.90;;;;;;21166319;27;20396;-53
2022/05/20 01:09:39;;;;;;;25.05;19.05;;;10.10;99.90;;;;;;21191722;27;20035;-53
2022/05/20 01:19:57;;;;;;;25.77;17.42;;;10.30;99.90;;;;;;21135309;28;20043;-53
2022/05/20 01:29:59;;;;;;;27.38;17.50;;;10.40;99.90;;;;;;21200339;27;20093;-51
2022/05/20 01:40:02;;;;;;;25.58;17.23;;;10.30;99.90;;;;;;21196986;27;20027;-51
2022/05/20 01:50:24;;;;;;;25.23;16.30;;;10.10;99.90;;;;;;21208363;27;20051;-50
2022/05/20 02:00:30;;;;;;;24.63;15.45;;;10.10;99.90;;;;;;21212686;27;20484;-59
2022/05/20 02:11:05;;;;;;;31.48;19.25;;;10.00;99.90;;;;;;21210472;27;20031;-54
2022/05/20 02:21:12;;;;;;;28.15;18.05;;;10.00;99.90;;;;;;21207282;28;20116;-53
2022/05/20 02:31:24;;;;;;;27.17;17.63;;;10.00;99.90;;;;;;21211102;28;20039;-51
2022/05/20 02:41:26;;;;;;;24.67;16.42;;;10.00;99.90;;;;;;21211148;28;20043;-59
2022/05/20 02:51:29;;;;;;;23.50;16.73;;;10.10;99.90;;;;;;21207564;28;20100;-59
2022/05/20 03:11:52;;;;;;;25.70;19.27;;;10.10;99.90;;;;;;21209501;28;20088;-58
2022/05/20 03:21:56;;;;;;;44.72;19.50;;;10.10;99.90;;;;;;21212015;27;20065;-49
2022/05/20 03:31:59;;;;;;;25.77;18.42;;;10.10;99.90;;;;;;21221986;27;20039;-59
2022/05/20 03:42:03;;;;;;;28.13;19.27;;;10.10;99.90;;;;;;21223071;27;20434;-59
2022/05/20 03:52:07;;;;;;;28.40;20.20;;;10.00;99.90;;;;;;21223042;27;20102;-52
2022/05/20 04:02:11;;;;;;;29.15;18.88;;;10.00;99.90;;;;;;21221187;27;20039;-50
2022/05/20 04:12:27;;;;;;;28.20;19.13;;;10.00;99.90;;;;;;21218130;27;20027;-59
2022/05/20 04:22:33;;;;;;;29.08;19.05;;;10.10;99.90;;;;;;21220019;27;20492;-51
2022/05/20 04:32:36;;;;;;;24.95;16.73;;;10.30;99.90;;;;;;21219092;27;20039;-59
2022/05/20 04:52:59;;;;;;;23.13;15.48;;;10.60;99.90;;;;;;21213453;27;20054;-50
2022/05/20 05:03:02;;;;;;;19.95;14.32;;;10.80;99.90;;;;;;21216836;27;20031;-50
2022/05/20 05:13:05;;;;;;;18.65;13.52;;;10.90;99.90;;;;;;21215670;27;20035;-59
2022/05/20 05:23:08;;;;;;;21.08;13.73;;;11.10;99.90;;;;;;21215348;27;20038;-53
2022/05/20 05:33:11;;;;;;;19.50;12.27;;;11.30;99.90;;;;;;21212781;27;20426;-60
2022/05/20 05:43:13;;;;;;;19.52;13.57;;;11.50;99.90;;;;;;21205715;27;20043;-54
2022/05/20 05:53:20;;;;;;;20.92;11.68;;;11.80;99.90;;;;;;21209802;27;20035;-52
2022/05/20 06:03:23;;;;;;;14.70;10.13;;;12.20;99.90;;;;;;21206307;27;20080;-60
2022/05/20 06:13:29;;;;;;;8.88;6.95;;;12.60;99.90;;;;;;21202894;27;20031;-55
2022/05/20 06:23:31;;;;;;;47.05;6.85;;;13.80;99.90;;;;;;21207573;28;20035;-55
2022/05/20 06:33:35;;;;;;;9.40;5.70;;;18.50;99.90;;;;;;21211491;28;20039;-56
2022/05/20 06:43:38;;;;;;;4.20;3.25;;;21.50;99.90;;;;;;21209735;28;20043;-61
2022/05/20 06:53:41;;;;;;;4.35;3.40;;;23.70;99.90;;;;;;21205350;28;20035;-62
2022/05/20 07:03:45;;;;;;;6.28;3.50;;;25.20;95.90;;;;;;21226800;27;20520;-58
2022/05/20 07:13:49;;;;;;;7.65;3.88;;;25.80;94.80;;;;;;21226007;27;20436;-62
2022/05/20 07:23:51;;;;;;;5.22;4.30;;;26.40;92.50;;;;;;21221793;27;20111;-63
2022/05/20 07:33:55;;;;;;;4.88;4.05;;;26.40;91.70;;;;;;21201112;27;20035;-63
2022/05/20 07:43:57;;;;;;;6.03;4.55;;;25.70;92.90;;;;;;21218448;27;20043;-63
2022/05/20 07:54:08;;;;;;;5.13;4.28;;;25.50;92.80;;;;;;21216664;27;20047;-62
2022/05/20 08:14:39;;;;;;;5.50;4.20;;;24.90;94.10;;;;;;21194190;27;20053;-58
2022/05/20 08:24:42;;;;;;;5.93;4.22;;;24.90;94.20;;;;;;21216033;27;20039;-63
2022/05/20 08:34:47;;;;;;;6.05;3.45;;;25.10;93.60;;;;;;21216460;27;20043;-58
2022/05/20 08:44:50;;;;;;;6.28;3.47;;;24.70;94.50;;;;;;21196365;27;20427;-64
2022/05/20 08:54:53;;;;;;;4.07;3.67;;;24.70;94.60;;;;;;21214766;27;20039;-63
2022/05/20 09:04:57;;;;;;;6.10;3.92;;;24.80;94.40;;;;;;21216390;27;20034;-62
2022/05/20 09:25:30;;;;;;;10.27;4.95;;;25.10;94.30;;;;;;21209611;27;20032;-64
2022/05/20 09:35:35;;;;;;;7.25;4.75;;;24.80;93.00;;;;;;21211259;27;20035;-57
2022/05/20 09:45:47;;;;;;;6.70;4.50;;;24.80;93.80;;;;;;21209819;27;20116;-63
2022/05/20 09:55:50;;;;;;;12.18;4.93;;;25.00;95.10;;;;;;21205790;27;20043;-63
2022/05/20 10:06:27;;;;;;;10.15;4.93;;;25.30;93.80;;;;;;21210415;27;20080;-63
2022/05/20 10:16:45;;;;;;;9.90;5.95;;;25.50;93.30;;;;;;21201034;28;20448;-64
2022/05/20 10:27:03;;;;;;;9.20;4.97;;;25.10;92.30;;;;;;21193304;28;20040;-62
2022/05/20 10:37:28;;;;;;;7.10;5.00;;;25.10;94.40;;;;;;21220086;27;20064;-63
2022/05/20 10:48:34;;;;;;;10.57;5.63;;;25.20;94.40;;;;;;21219921;27;20043;-63
2022/05/20 10:59:15;;;;;;;9.57;5.60;;;25.20;94.90;;;;;;21214899;27;20043;-63
2022/05/20 11:09:35;;;;;;;8.80;6.13;;;25.50;93.90;;;;;;20881264;28;20077;-63
2022/05/20 11:20:14;;;;;;;9.52;6.25;;;25.50;93.70;;;;;;20878535;28;20044;-65
2022/05/20 11:30:48;;;;;;;10.80;5.43;;;25.70;92.20;;;;;;20877497;28;20156;-57
2022/05/20 11:41:25;;;;;;;13.98;8.10;;;25.50;94.20;;;;;;21167486;27;20047;-64
2022/05/20 11:51:50;;;;;;;10.40;8.93;;;25.30;92.40;;;;;;21213905;27;20112;-64
2022/05/20 12:01:58;;;;;;;14.55;10.23;;;25.00;94.70;;;;;;21193323;27;20053;-58
2022/05/20 12:12:25;;;;;;;16.13;11.63;;;25.30;93.90;;;;;;21214466;27;20035;-64
2022/05/20 12:32:50;;;;;;;13.98;10.93;;;25.00;92.90;;;;;;21216447;27;20035;-64
2022/05/20 12:43:04;;;;;;;20.75;11.45;;;24.90;93.50;;;;;;21199740;27;20046;-64
2022/05/20 12:53:11;;;;;;;11.88;9.40;;;25.20;93.20;;;;;;21211828;27;20043;-63
2022/05/20 13:03:23;;;;;;;15.85;9.05;;;24.90;94.60;;;;;;21217277;27;20027;-65
2022/05/20 13:13:31;;;;;;;12.27;9.18;;;25.10;94.90;;;;;;21209299;27;20027;-64
2022/05/20 13:23:36;;;;;;;18.33;9.30;;;25.40;93.70;;;;;;21215111;27;20043;-64
2022/05/20 13:33:42;;;;;;;15.30;9.10;;;25.40;93.00;;;;;;21207322;27;20043;-64
2022/05/20 13:43:44;;;;;;;12.68;8.18;;;25.60;93.70;;;;;;21202132;27;20064;-64
2022/05/20 13:53:49;;;;;;;14.75;9.48;;;25.80;93.00;;;;;;21193608;27;20047;-58
2022/05/20 14:03:52;;;;;;;12.32;8.60;;;25.90;91.50;;;;;;21191544;27;20043;-64
2022/05/20 14:14:02;;;;;;;9.43;7.72;;;25.90;91.10;;;;;;21183782;27;20452;-65
2022/05/20 14:24:22;;;;;;;12.15;7.78;;;26.20;91.90;;;;;;21203304;28;20377;-64
2022/05/20 14:34:35;;;;;;;9.82;8.38;;;26.70;90.30;;;;;;21206486;28;20107;-64
2022/05/20 14:44:48;;;;;;;8.30;7.47;;;26.80;90.20;;;;;;21153238;28;20047;-64
2022/05/20 14:54:51;;;;;;;9.48;7.45;;;26.90;88.10;;;;;;21158699;28;20069;-64
2022/05/20 15:04:54;;;;;;;10.38;6.97;;;27.40;88.40;;;;;;21206326;28;20092;-63
2022/05/20 15:14:57;;;;;;;12.80;7.05;;;27.30;87.70;;;;;;21170979;28;20452;-63
2022/05/20 15:25:00;;;;;;;14.20;7.28;;;27.70;87.40;;;;;;21202917;27;20552;-64
2022/05/20 15:35:03;;;;;;;10.43;7.03;;;27.80;85.20;;;;;;21187034;27;20184;-63
2022/05/20 15:45:07;;;;;;;9.25;5.90;;;26.50;85.70;;;;;;21194061;27;20496;-63
2022/05/20 15:55:21;;;;;;;8.95;6.60;;;26.20;87.50;;;;;;21192053;27;20031;-62
2022/05/20 16:05:23;;;;;;;11.50;6.28;;;25.40;86.20;;;;;;21187218;27;20397;-61
2022/05/20 16:15:26;;;;;;;9.63;6.38;;;23.40;90.10;;;;;;21179158;27;20096;-60
2022/05/20 16:25:29;;;;;;;9.88;7.10;;;21.50;93.60;;;;;;21156625;27;20035;-61
2022/05/20 16:35:31;;;;;;;9.82;7.68;;;20.60;94.40;;;;;;21185250;27;20039;-59
2022/05/20 16:45:34;;;;;;;10.90;7.35;;;19.90;95.40;;;;;;21177282;27;20043;-59
2022/05/20 16:55:38;;;;;;;12.20;7.80;;;19.10;97.50;;;;;;21188269;27;20379;-59
2022/05/20 17:05:41;;;;;;;9.85;7.85;;;18.40;98.90;;;;;;21204244;27;20079;-59
2022/05/20 17:15:44;;;;;;;14.50;9.45;;;18.10;99.60;;;;;;21158787;27;20460;-59
2022/05/20 17:25:48;;;;;;;18.67;10.70;;;17.80;99.90;;;;;;21175961;27;20039;-59
2022/05/20 17:35:51;;;;;;;13.25;10.38;;;17.60;99.90;;;;;;21177665;27;20043;-51
2022/05/20 17:45:55;;;;;;;13.48;10.20;;;17.40;99.90;;;;;;21189274;27;20043;-53
2022/05/20 17:55:59;;;;;;;19.50;13.00;;;17.20;99.90;;;;;;21163550;27;20044;-59
2022/05/20 18:06:02;;;;;;;25.98;14.15;;;17.00;99.90;;;;;;21179758;27;20039;-59
2022/05/20 18:16:05;;;;;;;21.13;12.80;;;16.70;99.90;;;;;;21169140;27;20039;-58
2022/05/20 18:26:08;;;;;;;14.90;10.40;;;16.60;99.90;;;;;;21148658;28;20036;-54
2022/05/20 18:46:31;;;;;;;14.68;11.20;;;16.10;99.90;;;;;;21190113;28;20047;-59
2022/05/20 18:56:35;;;;;;;14.40;11.05;;;;;;;;;;21153566;27;20043;-60
2022/05/20 19:06:38;;;;;;;16.52;12.40;;;15.30;99.90;;;;;;21220843;27;20035;-59
2022/05/20 19:16:41;;;;;;;19.60;11.75;;;14.90;99.90;;;;;;21204456;27;20039;-59
2022/05/20 19:26:43;;;;;;;17.05;12.48;;;15.00;99.90;;;;;;21178692;27;20039;-58
2022/05/20 19:36:46;;;;;;;20.80;13.57;;;15.00;99.90;;;;;;21218029;27;20533;-55
2022/05/20 19:46:49;;;;;;;24.95;17.40;;;15.00;99.90;;;;;;21167057;27;20073;-55
2022/05/20 20:00:39;;;;;;;23.17;14.30;;;15.00;99.90;;;;;;21196314;27;20088;-52
2022/05/20 20:07:15;;;;;;;19.25;14.20;;;14.80;99.90;;;;;;21197736;27;20064;-59
2022/05/20 20:17:18;;;;;;;22.23;14.77;;;14.50;99.90;;;;;;21202392;27;20043;-59
2022/05/20 20:27:21;;;;;;;26.60;19.73;;;14.50;99.90;;;;;;21176509;27;20032;-51
2022/05/20 20:37:23;;;;;;;18.23;14.18;;;14.50;99.90;;;;;;21184543;27;20027;-53
2022/05/20 20:47:26;;;;;;;20.83;15.13;;;14.30;99.90;;;;;;21184129;27;20043;-58
2022/05/20 20:57:33;;;;;;;25.88;17.33;;;14.60;99.90;;;;;;21161499;27;20044;-60
2022/05/20 21:07:35;;;;;;;22.45;16.38;;;14.50;99.90;;;;;;21165219;27;20036;-59
2022/05/20 21:17:38;;;;;;;25.52;15.68;;;14.10;99.90;;;;;;21192775;27;20042;-59
2022/05/20 21:27:41;;;;;;;24.00;17.70;;;13.80;99.90;;;;;;21203833;27;20102;-59
2022/05/20 21:37:44;;;;;;;23.83;16.13;;;13.50;99.90;;;;;;21161399;27;20115;-59
2022/05/20 21:47:47;;;;;;;21.35;15.48;;;13.50;99.90;;;;;;21208978;27;20043;-59
2022/05/20 21:57:51;;;;;;;21.88;16.73;;;13.50;99.90;;;;;;21213375;27;20073;-59
2022/05/20 22:18:14;;;;;;;24.38;16.60;;;13.10;99.90;;;;;;21208760;27;20088;-59
2022/05/20 22:28:17;;;;;;;26.77;16.95;;;13.00;99.90;;;;;;21217311;27;20540;-59
2022/05/20 22:38:21;;;;;;;26.92;17.88;;;12.90;99.90;;;;;;21228705;27;20453;-59
2022/05/20 22:48:24;;;;;;;22.33;15.35;;;12.90;99.90;;;;;;21184082;27;20042;-55
2022/05/20 22:58:28;;;;;;;23.90;16.88;;;12.80;99.90;;;;;;21164017;27;20458;-58
2022/05/20 23:08:32;;;;;;;22.55;15.75;;;12.80;99.90;;;;;;21173686;27;20087;-59
2022/05/20 23:18:35;;;;;;;25.40;16.25;;;12.90;99.90;;;;;;21183418;27;20031;-59
2022/05/20 23:28:42;;;;;;;24.75;16.67;;;12.80;99.90;;;;;;21216304;27;20039;-59
2022/05/20 23:38:44;;;;;;;27.63;17.30;;;12.70;99.90;;;;;;21204066;27;20032;-53
2022/05/20 23:48:47;;;;;;;24.13;14.48;;;12.70;99.90;;;;;;21208480;27;20039;-59
2022/05/20 23:58:50;;;;;;;25.55;16.88;;;12.60;99.90;;;;;;21222654;27;20039;-60
